Time;durP1;ratioP1;P1;durP2;ratioP2;P2;SDS_P1;SDS_P2;PMS_P1;PMS_P2;Temp;Humidity;BMP_temperature;BMP_pressure;BME280_temperature;BME280_humidity;BME280_pressure;Samples;Min_cycle;Max_cycle;Signal;HPM_P1;HPM_P2
2022/10/17 00:01:52;;;;;;;18.40;7.97;;;11.80;99.90;;;;;;4990240;28;20057;-76
2022/10/17 00:04:18;;;;;;;17.05;7.97;;;11.80;99.90;;;;;;4991226;28;20049;-75
2022/10/17 00:06:44;;;;;;;17.42;8.45;;;11.90;99.90;;;;;;4990655;28;20026;-77
2022/10/17 00:09:10;;;;;;;22.33;9.13;;;12.00;99.90;;;;;;4992296;28;20026;-76
2022/10/17 00:11:37;;;;;;;20.20;7.32;;;12.00;99.90;;;;;;4991129;28;20377;-75
2022/10/17 00:14:03;;;;;;;14.60;7.45;;;11.90;99.90;;;;;;4991289;28;20053;-76
2022/10/17 00:16:33;;;;;;;18.27;8.85;;;11.80;99.90;;;;;;4989588;28;20037;-76
2022/10/17 00:18:59;;;;;;;18.98;7.85;;;11.80;99.90;;;;;;4991578;28;20034;-76
2022/10/17 00:21:26;;;;;;;21.35;8.90;;;11.80;99.90;;;;;;4990871;28;20039;-76
2022/10/17 00:23:53;;;;;;;22.90;7.70;;;11.70;99.90;;;;;;4991500;28;20034;-77
2022/10/17 00:26:20;;;;;;;20.05;8.65;;;11.70;99.90;;;;;;5005681;28;20046;-76
2022/10/17 00:28:51;;;;;;;17.63;8.85;;;11.70;99.90;;;;;;4990302;28;20483;-75
2022/10/17 00:31:19;;;;;;;21.27;8.85;;;11.70;99.90;;;;;;4992136;28;20038;-75
2022/10/17 00:33:46;;;;;;;21.75;9.38;;;11.70;99.90;;;;;;4989820;28;20043;-76
2022/10/17 00:36:17;;;;;;;20.98;8.60;;;11.80;99.90;;;;;;4989416;28;20050;-75
2022/10/17 00:38:45;;;;;;;23.70;10.70;;;11.80;99.90;;;;;;4991700;28;20487;-76
2022/10/17 00:41:15;;;;;;;23.73;8.98;;;11.80;99.90;;;;;;4991037;28;20046;-76
2022/10/17 00:43:49;;;;;;;16.42;8.32;;;11.80;99.90;;;;;;4991030;28;20392;-77
2022/10/17 00:46:16;;;;;;;18.13;9.07;;;11.80;99.90;;;;;;4991085;28;20388;-76
2022/10/17 00:48:46;;;;;;;23.42;9.15;;;11.80;99.90;;;;;;4993985;28;20029;-74
2022/10/17 00:51:14;;;;;;;19.83;8.30;;;11.80;99.90;;;;;;4994708;28;20061;-76
2022/10/17 00:53:40;;;;;;;18.83;9.02;;;11.70;99.90;;;;;;4996104;28;20046;-77
2022/10/17 00:56:07;;;;;;;18.30;8.93;;;11.70;99.90;;;;;;4993215;28;20455;-74
2022/10/17 00:58:33;;;;;;;20.02;8.98;;;11.70;99.90;;;;;;4995044;28;20066;-75
2022/10/17 01:01:01;;;;;;;20.00;8.77;;;11.70;99.90;;;;;;4994294;28;20035;-75
2022/10/17 01:03:27;;;;;;;24.85;8.30;;;11.70;99.90;;;;;;4987628;28;20046;-75
2022/10/17 01:05:54;;;;;;;20.15;8.68;;;11.70;99.90;;;;;;4993463;28;20034;-76
2022/10/17 01:08:20;;;;;;;17.38;8.60;;;11.70;99.90;;;;;;4995626;28;20468;-76
2022/10/17 01:11:06;;;;;;;17.52;8.93;;;11.70;99.90;;;;;;4993394;28;20042;-77
2022/10/17 01:13:52;;;;;;;19.63;9.07;;;11.80;99.90;;;;;;4955561;28;20478;-75
2022/10/17 01:16:25;;;;;;;19.48;9.43;;;12.00;99.90;;;;;;4991817;28;20042;-75
2022/10/17 01:19:02;;;;;;;20.98;9.45;;;12.00;99.90;;;;;;4994871;28;20038;-75
2022/10/17 01:21:39;;;;;;;17.33;9.95;;;11.90;99.90;;;;;;4994146;28;20046;-73
2022/10/17 01:24:28;;;;;;;18.02;8.77;;;11.90;99.90;;;;;;4992998;28;20050;-75
2022/10/17 01:27:18;;;;;;;19.25;9.25;;;11.80;99.90;;;;;;4990845;28;20053;-74
2022/10/17 01:30:11;;;;;;;14.00;6.33;;;11.90;99.90;;;;;;4992887;28;20122;-78
2022/10/17 01:32:50;;;;;;;16.50;8.07;;;11.80;99.90;;;;;;4995131;28;20318;-74
2022/10/17 01:35:35;;;;;;;19.25;8.43;;;11.70;99.90;;;;;;4998924;28;20366;-76
2022/10/17 01:38:09;;;;;;;16.83;8.23;;;11.60;99.90;;;;;;4992099;28;20042;-75
2022/10/17 01:41:02;;;;;;;17.75;8.82;;;11.60;99.90;;;;;;4987380;28;20045;-75
2022/10/17 01:43:52;;;;;;;22.80;8.60;;;11.50;99.90;;;;;;4980228;28;20369;-76
2022/10/17 01:46:28;;;;;;;17.23;7.38;;;11.60;99.90;;;;;;4993189;28;20042;-76
2022/10/17 01:48:58;;;;;;;21.48;8.23;;;11.50;99.90;;;;;;4992806;28;20044;-76
2022/10/17 01:51:36;;;;;;;16.95;8.30;;;11.50;99.90;;;;;;4987699;28;20057;-76
2022/10/17 01:54:22;;;;;;;17.20;9.00;;;11.40;99.90;;;;;;4993688;28;20038;-75
2022/10/17 01:56:54;;;;;;;15.85;7.57;;;11.40;99.90;;;;;;4993028;28;20030;-77
2022/10/17 01:59:25;;;;;;;16.42;7.97;;;11.30;99.90;;;;;;4992650;28;20428;-76
2022/10/17 02:01:54;;;;;;;16.38;7.53;;;11.40;99.90;;;;;;4993717;28;20463;-75
2022/10/17 02:04:22;;;;;;;12.25;5.40;;;11.50;99.90;;;;;;4993200;28;20419;-75
2022/10/17 02:06:48;;;;;;;14.52;7.60;;;11.50;99.90;;;;;;4975091;28;20049;-77
2022/10/17 02:09:20;;;;;;;13.73;7.50;;;11.40;99.90;;;;;;4993919;28;20038;-76
2022/10/17 02:12:25;;;;;;;15.48;7.10;;;11.50;99.90;;;;;;4993140;28;20050;-76
2022/10/17 02:15:14;;;;;;;18.00;8.02;;;11.50;99.90;;;;;;4989476;28;20399;-75
2022/10/17 02:17:57;;;;;;;16.90;7.40;;;11.50;99.90;;;;;;4992407;28;20049;-74
2022/10/17 02:20:36;;;;;;;19.65;7.72;;;11.50;99.90;;;;;;4964998;28;20052;-76
2022/10/17 02:23:10;;;;;;;15.27;6.78;;;11.50;99.90;;;;;;4992243;28;20476;-75
2022/10/17 02:26:06;;;;;;;17.80;7.47;;;11.40;99.90;;;;;;4991663;28;20046;-75
2022/10/17 02:29:05;;;;;;;10.10;6.47;;;11.40;99.90;;;;;;4992645;28;20503;-75
2022/10/17 02:31:47;;;;;;;11.95;6.72;;;11.50;99.90;;;;;;4925931;28;20050;-76
2022/10/17 02:34:18;;;;;;;13.93;7.13;;;11.40;99.90;;;;;;4993502;28;20061;-76
2022/10/17 02:36:57;;;;;;;18.50;7.30;;;11.40;99.90;;;;;;4991765;28;20030;-76
2022/10/17 02:39:26;;;;;;;20.90;8.20;;;11.40;99.90;;;;;;4976415;28;20050;-76
2022/10/17 02:41:55;;;;;;;12.95;7.32;;;11.30;99.90;;;;;;4993989;28;20046;-76
2022/10/17 02:44:23;;;;;;;17.70;6.78;;;11.30;99.90;;;;;;4993333;28;20038;-76
2022/10/17 02:47:02;;;;;;;13.23;7.22;;;11.30;99.90;;;;;;4992595;28;20045;-77
2022/10/17 02:49:35;;;;;;;15.60;6.90;;;11.30;99.90;;;;;;4992697;28;20046;-76
2022/10/17 02:52:15;;;;;;;13.52;6.57;;;11.20;99.90;;;;;;4993660;28;20061;-75
2022/10/17 02:54:52;;;;;;;17.00;6.78;;;11.30;99.90;;;;;;4993091;28;20380;-75
2022/10/17 02:57:26;;;;;;;13.02;6.75;;;11.20;99.90;;;;;;4991764;28;20041;-76
2022/10/17 02:59:56;;;;;;;13.50;6.63;;;11.20;99.90;;;;;;5009947;28;20038;-78
2022/10/17 03:02:23;;;;;;;14.73;6.40;;;11.20;99.90;;;;;;5014259;28;20095;-75
2022/10/17 03:04:53;;;;;;;13.20;6.13;;;11.20;99.90;;;;;;5009310;28;20053;-76
2022/10/17 03:07:19;;;;;;;13.95;7.10;;;11.20;99.90;;;;;;4992059;28;20031;-76
2022/10/17 03:09:46;;;;;;;14.90;6.30;;;11.20;99.90;;;;;;4991945;28;20102;-76
2022/10/17 03:12:12;;;;;;;22.27;7.07;;;11.10;99.90;;;;;;4990921;28;20049;-75
2022/10/17 03:14:38;;;;;;;12.60;6.28;;;11.10;99.90;;;;;;4991425;28;20049;-74
2022/10/17 03:17:04;;;;;;;14.25;6.72;;;11.20;99.90;;;;;;4989209;28;20042;-75
2022/10/17 03:19:31;;;;;;;16.13;7.20;;;11.20;99.90;;;;;;4991588;28;20042;-75
2022/10/17 03:21:58;;;;;;;17.50;7.25;;;11.10;99.90;;;;;;4992402;28;20030;-76
2022/10/17 03:24:24;;;;;;;14.95;7.50;;;11.10;99.90;;;;;;4992932;28;20050;-76
2022/10/17 03:26:50;;;;;;;14.68;6.45;;;11.10;99.90;;;;;;4991698;28;20030;-75
2022/10/17 03:29:17;;;;;;;15.10;7.43;;;11.10;99.90;;;;;;4990969;28;20472;-75
2022/10/17 03:31:43;;;;;;;18.90;6.97;;;11.10;99.90;;;;;;4992864;28;20050;-74
2022/10/17 03:34:10;;;;;;;16.73;6.65;;;11.10;99.90;;;;;;5007964;28;20073;-75
2022/10/17 03:36:36;;;;;;;16.35;7.15;;;11.10;99.90;;;;;;4991548;28;20053;-74
2022/10/17 03:39:03;;;;;;;16.02;7.25;;;11.10;99.90;;;;;;4990950;28;20042;-74
2022/10/17 03:41:30;;;;;;;12.27;7.35;;;11.10;99.90;;;;;;4991415;28;20049;-76
2022/10/17 03:43:57;;;;;;;16.60;7.32;;;11.10;99.90;;;;;;4985749;28;20050;-76
2022/10/17 03:46:23;;;;;;;13.80;7.00;;;11.20;99.90;;;;;;4989807;28;20053;-76
2022/10/17 03:48:50;;;;;;;16.98;6.88;;;11.20;99.90;;;;;;4991358;28;20038;-76
2022/10/17 03:51:16;;;;;;;19.52;7.78;;;11.10;99.90;;;;;;4991516;28;20050;-75
2022/10/17 03:53:50;;;;;;;18.73;7.55;;;11.10;99.90;;;;;;4987325;28;20054;-75
2022/10/17 03:56:17;;;;;;;12.77;6.93;;;11.10;99.90;;;;;;4989145;28;20073;-75
2022/10/17 03:58:48;;;;;;;13.30;6.95;;;11.00;99.90;;;;;;5008375;28;20046;-76
2022/10/17 04:01:17;;;;;;;12.90;6.28;;;11.00;99.90;;;;;;4992844;28;20022;-76
2022/10/17 04:03:51;;;;;;;12.13;6.22;;;11.00;99.90;;;;;;4993995;28;20039;-76
2022/10/17 04:06:18;;;;;;;14.82;7.63;;;11.10;99.90;;;;;;4989479;28;20399;-76
2022/10/17 04:08:45;;;;;;;14.15;6.25;;;11.00;99.90;;;;;;4992221;28;20490;-74
2022/10/17 04:11:17;;;;;;;14.82;6.97;;;11.00;99.90;;;;;;4990300;28;20301;-73
2022/10/17 04:13:44;;;;;;;15.38;7.30;;;11.00;99.90;;;;;;5006577;28;20070;-75
2022/10/17 04:16:14;;;;;;;14.13;6.60;;;10.90;99.90;;;;;;4988674;28;20046;-75
2022/10/17 04:18:54;;;;;;;13.90;6.53;;;10.90;99.90;;;;;;5006123;28;20392;-74
2022/10/17 04:21:24;;;;;;;10.55;6.55;;;10.90;99.90;;;;;;5002795;28;20039;-74
2022/10/17 04:23:59;;;;;;;13.88;5.88;;;10.90;99.90;;;;;;4976034;28;20042;-75
2022/10/17 04:26:40;;;;;;;10.75;5.72;;;10.90;99.90;;;;;;4994353;28;20049;-73
2022/10/17 04:29:06;;;;;;;17.38;7.20;;;10.90;99.90;;;;;;4989267;28;20030;-77
2022/10/17 04:31:32;;;;;;;14.60;7.22;;;10.80;99.90;;;;;;4994391;28;20491;-75
2022/10/17 04:34:14;;;;;;;11.52;6.70;;;10.90;99.90;;;;;;4988861;28;20051;-77
2022/10/17 04:36:40;;;;;;;13.10;6.40;;;10.90;99.90;;;;;;4996576;28;20373;-73
2022/10/17 04:39:07;;;;;;;12.13;6.00;;;10.90;99.90;;;;;;4982829;28;20056;-74
2022/10/17 04:41:35;;;;;;;16.20;6.65;;;10.90;99.90;;;;;;4997622;28;20034;-74
2022/10/17 04:44:01;;;;;;;15.18;6.32;;;10.90;99.90;;;;;;4995924;28;20049;-75
2022/10/17 04:46:32;;;;;;;12.13;6.28;;;10.90;99.90;;;;;;4996647;28;20046;-74
2022/10/17 04:48:58;;;;;;;14.82;6.63;;;10.90;99.90;;;;;;4996538;28;20070;-77
2022/10/17 04:51:25;;;;;;;11.85;6.38;;;10.90;99.90;;;;;;4977569;28;20051;-75
2022/10/17 04:54:18;;;;;;;15.35;6.43;;;10.90;99.90;;;;;;4989891;28;20133;-74
2022/10/17 04:56:48;;;;;;;14.60;6.43;;;10.90;99.90;;;;;;4996987;28;20034;-74
2022/10/17 04:59:15;;;;;;;11.65;6.75;;;10.90;99.90;;;;;;4979799;28;20543;-74
2022/10/17 05:01:43;;;;;;;11.45;6.80;;;10.90;99.90;;;;;;4996444;28;20046;-74
2022/10/17 05:04:09;;;;;;;13.38;6.88;;;10.90;99.90;;;;;;4995056;28;20053;-75
2022/10/17 05:06:36;;;;;;;13.73;6.95;;;10.80;99.90;;;;;;4997838;28;20046;-73
2022/10/17 05:09:23;;;;;;;11.85;6.78;;;10.80;99.90;;;;;;4967322;28;20053;-73
2022/10/17 05:11:49;;;;;;;13.15;7.43;;;10.70;99.90;;;;;;5012005;28;20039;-73
2022/10/17 05:14:17;;;;;;;14.02;6.85;;;10.80;99.90;;;;;;4994621;28;20622;-73
2022/10/17 05:16:43;;;;;;;15.85;7.32;;;10.80;99.90;;;;;;4997160;28;20042;-74
2022/10/17 05:19:10;;;;;;;11.25;6.03;;;10.70;99.90;;;;;;4995893;28;20395;-75
2022/10/17 05:21:42;;;;;;;12.23;6.18;;;10.70;99.90;;;;;;5012437;28;20034;-74
2022/10/17 05:24:12;;;;;;;12.85;6.28;;;10.60;99.90;;;;;;4995585;28;20401;-75
2022/10/17 05:26:39;;;;;;;12.88;6.57;;;10.60;99.90;;;;;;4996887;28;20049;-74
2022/10/17 05:29:05;;;;;;;10.18;6.28;;;10.70;99.90;;;;;;4997476;28;20034;-75
2022/10/17 05:31:36;;;;;;;13.07;7.07;;;10.70;99.90;;;;;;4996436;28;20042;-74
2022/10/17 05:34:03;;;;;;;14.32;7.38;;;10.70;99.90;;;;;;4994356;28;20065;-74
2022/10/17 05:36:32;;;;;;;13.20;7.10;;;10.70;99.90;;;;;;4985421;28;20042;-73
2022/10/17 05:39:00;;;;;;;16.05;7.57;;;10.70;99.90;;;;;;4993197;28;20408;-78
2022/10/17 05:41:27;;;;;;;22.02;7.53;;;10.80;99.90;;;;;;4993975;28;20050;-73
2022/10/17 05:43:53;;;;;;;17.60;8.20;;;10.70;99.90;;;;;;4993715;28;20086;-73
2022/10/17 05:46:32;;;;;;;12.65;7.68;;;10.70;99.90;;;;;;4992114;28;20050;-74
2022/10/17 05:48:59;;;;;;;14.80;7.28;;;10.60;99.90;;;;;;4992632;28;20050;-77
2022/10/17 05:51:25;;;;;;;13.13;6.88;;;10.70;99.90;;;;;;4993997;28;20057;-75
2022/10/17 05:53:53;;;;;;;16.80;7.30;;;10.70;99.90;;;;;;4993603;28;20065;-75
2022/10/17 05:56:23;;;;;;;16.58;7.93;;;10.70;99.90;;;;;;4991197;28;20038;-76
2022/10/17 05:58:50;;;;;;;12.93;6.93;;;10.70;99.90;;;;;;4993317;28;20045;-76
2022/10/17 06:01:28;;;;;;;16.60;7.45;;;10.70;99.90;;;;;;4994274;28;20498;-76
2022/10/17 06:03:55;;;;;;;13.18;6.97;;;10.70;99.90;;;;;;4993699;28;20065;-74
2022/10/17 06:06:21;;;;;;;22.23;9.27;;;10.60;99.90;;;;;;4989940;28;20102;-73
2022/10/17 06:08:48;;;;;;;14.85;8.38;;;10.70;99.90;;;;;;4986373;28;20057;-72
2022/10/17 06:11:19;;;;;;;22.00;9.48;;;10.80;99.90;;;;;;4992857;28;20037;-73
2022/10/17 06:13:45;;;;;;;22.25;9.25;;;11.00;99.90;;;;;;4992812;28;20053;-73
2022/10/17 06:16:17;;;;;;;19.98;9.02;;;11.00;99.90;;;;;;4992522;28;20045;-73
2022/10/17 06:18:44;;;;;;;20.02;9.18;;;10.90;99.90;;;;;;4991788;28;20049;-73
2022/10/17 06:21:18;;;;;;;21.85;9.35;;;10.90;99.90;;;;;;4992119;28;20049;-73
2022/10/17 06:23:47;;;;;;;17.90;8.85;;;10.80;99.90;;;;;;4992814;28;20054;-74
2022/10/17 06:26:18;;;;;;;18.38;9.25;;;10.90;99.90;;;;;;5007395;28;20042;-74
2022/10/17 06:28:45;;;;;;;16.38;8.52;;;11.00;99.90;;;;;;5001268;28;20057;-73
2022/10/17 06:31:13;;;;;;;14.60;8.55;;;11.10;99.90;;;;;;4984422;28;20053;-73
2022/10/17 06:33:40;;;;;;;16.42;10.45;;;11.30;99.90;;;;;;4990628;28;20054;-74
2022/10/17 06:36:11;;;;;;;18.63;9.48;;;11.30;99.90;;;;;;4991599;28;20061;-74
2022/10/17 06:38:38;;;;;;;18.58;8.75;;;11.40;99.90;;;;;;4991218;28;20046;-75
2022/10/17 06:41:13;;;;;;;14.20;8.85;;;11.50;99.90;;;;;;5007100;28;20053;-74
2022/10/17 06:43:48;;;;;;;23.33;8.93;;;11.60;99.90;;;;;;4993322;28;20045;-75
2022/10/17 06:46:49;;;;;;;15.05;9.82;;;11.90;99.90;;;;;;4978774;28;20038;-74
2022/10/17 06:49:17;;;;;;;16.17;9.35;;;11.90;99.90;;;;;;4982856;28;20046;-75
2022/10/17 06:51:48;;;;;;;15.30;8.65;;;12.10;99.90;;;;;;4991053;28;20046;-73
2022/10/17 06:54:18;;;;;;;15.80;9.40;;;12.10;99.90;;;;;;4985786;28;20046;-75
2022/10/17 06:56:46;;;;;;;18.90;9.20;;;12.10;99.90;;;;;;4993701;28;20030;-73
2022/10/17 06:59:25;;;;;;;17.15;9.93;;;12.20;99.90;;;;;;4984744;28;20407;-74
2022/10/17 07:02:14;;;;;;;22.58;9.60;;;12.30;99.90;;;;;;4988692;28;20065;-74
2022/10/17 07:04:41;;;;;;;14.30;9.82;;;12.40;99.90;;;;;;4987392;28;20046;-74
2022/10/17 07:07:07;;;;;;;19.08;10.18;;;12.60;99.90;;;;;;4987354;28;20499;-78
2022/10/17 07:09:34;;;;;;;16.77;9.20;;;12.80;99.90;;;;;;4983936;28;20061;-74
2022/10/17 07:12:06;;;;;;;16.02;9.57;;;13.00;99.90;;;;;;4996001;28;20026;-80
2022/10/17 07:14:34;;;;;;;16.77;8.80;;;13.10;99.90;;;;;;5025342;28;20054;-75
2022/10/17 07:17:04;;;;;;;19.25;9.23;;;13.20;99.90;;;;;;5029123;28;20055;-78
2022/10/17 07:19:32;;;;;;;16.25;8.60;;;13.40;99.90;;;;;;5002945;28;20052;-79
2022/10/17 07:21:58;;;;;;;14.48;7.18;;;13.60;99.90;;;;;;4993278;28;20413;-73
2022/10/17 07:24:25;;;;;;;17.55;7.70;;;13.80;99.90;;;;;;4991149;28;20053;-73
2022/10/17 07:26:56;;;;;;;13.95;6.53;;;13.90;99.90;;;;;;4991496;28;20365;-75
2022/10/17 07:29:22;;;;;;;15.70;6.07;;;14.20;99.90;;;;;;4985421;28;20034;-75
2022/10/17 07:32:07;;;;;;;10.80;5.03;;;14.60;99.90;;;;;;5006703;28;20049;-74
2022/10/17 07:34:35;;;;;;;14.52;4.93;;;14.90;99.90;;;;;;4991701;28;20685;-74
2022/10/17 07:37:02;;;;;;;7.25;4.20;;;15.40;99.90;;;;;;4991190;28;20038;-81
2022/10/17 07:39:29;;;;;;;6.90;3.85;;;15.80;99.90;;;;;;4984054;28;20057;-75
2022/10/17 07:41:57;;;;;;;10.30;3.28;;;16.10;99.90;;;;;;4992485;28;20057;-75
2022/10/17 07:44:23;;;;;;;5.03;3.05;;;16.30;99.90;;;;;;4998904;28;20035;-74
2022/10/17 07:46:51;;;;;;;7.97;3.10;;;16.50;99.90;;;;;;4990981;28;20054;-73
2022/10/17 07:49:18;;;;;;;5.45;3.00;;;16.60;99.90;;;;;;4989024;28;20074;-75
2022/10/17 07:51:44;;;;;;;7.60;3.03;;;16.70;99.90;;;;;;4990761;28;20050;-73
2022/10/17 07:54:10;;;;;;;5.28;2.65;;;16.80;99.90;;;;;;4985772;28;20046;-74
2022/10/17 07:56:37;;;;;;;5.63;2.67;;;17.00;99.90;;;;;;4992623;28;20054;-74
2022/10/17 07:59:03;;;;;;;3.90;2.38;;;17.10;99.90;;;;;;4988227;28;20487;-74
2022/10/17 08:01:29;;;;;;;4.53;2.65;;;17.30;99.90;;;;;;4991070;28;20038;-73
2022/10/17 08:03:55;;;;;;;5.20;2.55;;;17.60;99.90;;;;;;4992231;28;20045;-73
2022/10/17 08:06:22;;;;;;;5.07;2.33;;;17.70;99.90;;;;;;4991031;28;20392;-74
2022/10/17 08:08:48;;;;;;;5.07;2.60;;;18.00;99.90;;;;;;4983864;28;20045;-73
2022/10/17 08:11:14;;;;;;;6.57;1.90;;;18.30;99.90;;;;;;4972450;28;20487;-74
2022/10/17 08:13:41;;;;;;;4.13;1.88;;;18.40;99.90;;;;;;4980100;28;20049;-74
2022/10/17 08:16:10;;;;;;;14.77;2.38;;;18.70;99.90;;;;;;4991371;28;20064;-74
2022/10/17 08:18:39;;;;;;;6.57;1.88;;;19.20;99.90;;;;;;4992352;28;20038;-74
2022/10/17 08:21:07;;;;;;;8.10;2.20;;;19.50;99.90;;;;;;4990129;28;20042;-74
2022/10/17 08:23:33;;;;;;;5.60;2.38;;;19.60;99.90;;;;;;4992663;28;20365;-74
2022/10/17 08:26:02;;;;;;;4.22;2.13;;;19.60;99.90;;;;;;4992584;28;20035;-73
2022/10/17 08:28:28;;;;;;;7.82;1.83;;;19.60;99.90;;;;;;4987414;28;20030;-73
2022/10/17 08:31:03;;;;;;;4.40;1.83;;;19.40;99.90;;;;;;4972756;28;20157;-73
2022/10/17 08:33:29;;;;;;;5.90;1.98;;;19.70;99.90;;;;;;4976853;28;20054;-75
2022/10/17 08:35:58;;;;;;;3.90;2.13;;;20.10;99.90;;;;;;4992263;28;20026;-73
2022/10/17 08:38:24;;;;;;;4.93;1.73;;;20.40;99.90;;;;;;4987407;28;20395;-74
2022/10/17 08:40:50;;;;;;;4.30;1.67;;;20.60;99.90;;;;;;4973002;28;20027;-74
2022/10/17 08:43:47;;;;;;;2.92;1.65;;;20.50;99.90;;;;;;4972146;28;20050;-73
2022/10/17 08:46:14;;;;;;;4.45;2.25;;;20.50;99.90;;;;;;4944767;28;20050;-73
2022/10/17 08:48:44;;;;;;;3.83;1.70;;;20.40;99.90;;;;;;4972482;28;20057;-73
2022/10/17 08:51:17;;;;;;;3.20;1.52;;;20.50;99.90;;;;;;4984381;28;20030;-75
2022/10/17 08:54:07;;;;;;;4.07;2.10;;;20.70;99.90;;;;;;4992050;28;20038;-73
2022/10/17 08:56:43;;;;;;;5.22;1.85;;;20.60;99.90;;;;;;4991307;28;20038;-74
2022/10/17 08:59:16;;;;;;;4.53;2.38;;;20.80;99.90;;;;;;4979346;28;20039;-73
2022/10/17 09:01:49;;;;;;;11.65;1.63;;;20.70;99.90;;;;;;4972297;28;20039;-73
2022/10/17 09:04:50;;;;;;;8.40;1.73;;;20.80;99.90;;;;;;4988249;28;20050;-74
2022/10/17 09:07:58;;;;;;;5.70;1.80;;;21.20;99.90;;;;;;4979290;28;20031;-73
2022/10/17 09:11:02;;;;;;;3.65;2.42;;;21.40;99.90;;;;;;4955968;28;20050;-73
2022/10/17 09:13:49;;;;;;;2.55;1.60;;;21.40;99.90;;;;;;4973854;28;20469;-75
2022/10/17 09:16:51;;;;;;;4.10;1.67;;;21.10;99.90;;;;;;4975588;28;20060;-73
2022/10/17 09:19:29;;;;;;;5.47;1.85;;;21.00;99.90;;;;;;4965337;28;20046;-74
2022/10/17 09:22:01;;;;;;;4.35;1.48;;;21.30;99.90;;;;;;4995276;28;20050;-73
2022/10/17 09:24:43;;;;;;;5.82;1.98;;;21.50;99.90;;;;;;4994926;28;20037;-74
2022/10/17 09:27:32;;;;;;;6.78;2.15;;;21.50;99.90;;;;;;4995090;28;20034;-74
2022/10/17 09:30:21;;;;;;;6.60;2.00;;;21.20;99.90;;;;;;4989448;28;20057;-74
2022/10/17 09:32:47;;;;;;;6.22;1.70;;;20.90;99.90;;;;;;4995248;28;20039;-74
2022/10/17 09:35:14;;;;;;;2.97;1.73;;;20.50;99.90;;;;;;4994356;28;20046;-74
2022/10/17 09:37:43;;;;;;;3.03;1.48;;;20.30;99.90;;;;;;4988970;28;20026;-74
2022/10/17 09:40:20;;;;;;;6.80;2.30;;;20.20;99.90;;;;;;4993127;28;20030;-75
2022/10/17 09:42:49;;;;;;;2.88;1.42;;;20.20;99.90;;;;;;4994901;28;20270;-75
2022/10/17 09:45:18;;;;;;;5.75;1.40;;;20.10;99.90;;;;;;4994001;28;20038;-74
2022/10/17 09:47:59;;;;;;;3.97;1.70;;;20.10;99.90;;;;;;4995018;28;20026;-75
2022/10/17 09:50:29;;;;;;;4.25;1.63;;;20.20;99.90;;;;;;4993330;28;20062;-75
2022/10/17 09:53:00;;;;;;;3.97;1.83;;;20.30;99.90;;;;;;4995094;28;20374;-74
2022/10/17 09:55:32;;;;;;;4.90;1.63;;;20.40;99.90;;;;;;4993946;28;20045;-73
2022/10/17 09:58:01;;;;;;;7.93;2.10;;;20.40;99.90;;;;;;4994567;28;20030;-73
2022/10/17 10:00:36;;;;;;;3.70;1.45;;;20.50;99.90;;;;;;4992968;28;20026;-73
2022/10/17 10:03:23;;;;;;;4.82;2.20;;;20.50;99.90;;;;;;4992889;28;20050;-74
2022/10/17 10:06:16;;;;;;;17.67;2.00;;;20.70;99.90;;;;;;4994741;28;20039;-74
2022/10/17 10:08:54;;;;;;;4.03;1.40;;;21.00;99.90;;;;;;4985254;28;20054;-74
2022/10/17 10:11:42;;;;;;;4.60;2.55;;;20.90;99.90;;;;;;4987331;28;20491;-74
2022/10/17 10:14:38;;;;;;;5.13;1.63;;;20.80;99.90;;;;;;4990696;28;20065;-75
2022/10/17 10:17:25;;;;;;;4.80;1.80;;;20.90;99.90;;;;;;4978183;28;20050;-72
2022/10/17 10:19:51;;;;;;;4.13;1.70;;;20.80;99.90;;;;;;4993330;28;20030;-74
2022/10/17 10:22:22;;;;;;;4.90;1.80;;;20.90;99.90;;;;;;4993148;28;20053;-75
2022/10/17 10:25:13;;;;;;;4.32;1.45;;;20.90;99.90;;;;;;4994624;28;20042;-74
2022/10/17 10:27:42;;;;;;;2.72;1.55;;;21.00;99.90;;;;;;4994231;28;20030;-74
2022/10/17 10:30:21;;;;;;;4.30;2.33;;;21.00;99.90;;;;;;4992545;28;20380;-77
2022/10/17 10:32:48;;;;;;;4.05;1.50;;;21.10;99.90;;;;;;4994516;28;20380;-74
2022/10/17 10:35:26;;;;;;;4.93;2.05;;;21.20;99.90;;;;;;4991106;28;20035;-75
2022/10/17 10:37:56;;;;;;;4.05;1.63;;;21.40;99.90;;;;;;4988275;28;20037;-72
2022/10/17 10:40:30;;;;;;;3.78;1.88;;;21.40;99.90;;;;;;4992064;28;20485;-74
2022/10/17 10:42:58;;;;;;;4.57;2.53;;;21.30;99.90;;;;;;4993145;28;20383;-74
2022/10/17 10:45:37;;;;;;;4.88;2.28;;;21.40;99.90;;;;;;4993343;28;20152;-74
2022/10/17 10:48:20;;;;;;;3.83;2.03;;;21.50;99.90;;;;;;4992820;28;20041;-74
2022/10/17 10:50:56;;;;;;;4.85;2.00;;;21.60;99.30;;;;;;4993631;28;20515;-73
2022/10/17 10:53:46;;;;;;;3.25;1.55;;;21.60;99.10;;;;;;4992955;28;20054;-73
2022/10/17 10:56:37;;;;;;;3.63;1.70;;;21.60;99.90;;;;;;4992191;28;20034;-73
2022/10/17 10:59:28;;;;;;;4.15;1.67;;;21.60;99.80;;;;;;4992354;28;20039;-73
2022/10/17 11:02:03;;;;;;;6.00;2.00;;;21.60;99.40;;;;;;4988500;28;20031;-74
2022/10/17 11:04:48;;;;;;;5.53;1.80;;;21.60;99.50;;;;;;4992959;28;20384;-72
2022/10/17 11:07:24;;;;;;;8.93;2.38;;;21.70;98.70;;;;;;4991979;28;20041;-73
2022/10/17 11:10:24;;;;;;;4.07;2.58;;;21.90;98.50;;;;;;4992036;28;20035;-73
2022/10/17 11:13:03;;;;;;;4.03;1.40;;;22.10;98.10;;;;;;5008474;28;20502;-74
2022/10/17 11:15:46;;;;;;;3.67;1.58;;;22.00;97.80;;;;;;4993456;28;20806;-73
2022/10/17 11:18:32;;;;;;;3.38;1.67;;;22.20;97.90;;;;;;4992574;28;20026;-75
2022/10/17 11:21:10;;;;;;;5.57;1.75;;;22.10;96.70;;;;;;4993734;28;20038;-74
2022/10/17 11:23:47;;;;;;;5.22;1.85;;;22.20;96.90;;;;;;4992179;28;20034;-74
2022/10/17 11:26:34;;;;;;;5.47;1.92;;;22.20;96.70;;;;;;4990774;28;20043;-74
2022/10/17 11:29:03;;;;;;;4.85;1.67;;;22.20;97.90;;;;;;4991994;28;20034;-74
2022/10/17 11:31:40;;;;;;;3.88;1.67;;;22.40;96.70;;;;;;5003793;28;20209;-73
2022/10/17 11:34:20;;;;;;;5.93;2.15;;;22.60;96.00;;;;;;5009538;28;20057;-75
2022/10/17 11:36:50;;;;;;;2.83;1.40;;;22.70;95.90;;;;;;5000743;28;20031;-75
2022/10/17 11:39:27;;;;;;;5.78;2.35;;;23.00;93.80;;;;;;4991695;28;20265;-74
2022/10/17 11:42:05;;;;;;;4.82;1.40;;;23.00;94.10;;;;;;4992938;28;20034;-73
2022/10/17 11:44:40;;;;;;;4.28;1.90;;;22.90;94.20;;;;;;4991433;28;20060;-73
2022/10/17 11:47:44;;;;;;;3.40;2.15;;;23.00;94.50;;;;;;4992803;28;20034;-74
2022/10/17 11:50:16;;;;;;;4.85;2.22;;;22.90;93.60;;;;;;5004953;28;20050;-75
2022/10/17 11:53:07;;;;;;;5.97;1.92;;;22.80;94.80;;;;;;4992944;28;20034;-74
2022/10/17 11:55:37;;;;;;;3.55;1.30;;;23.00;94.50;;;;;;4991851;28;20049;-74
2022/10/17 11:58:15;;;;;;;4.07;1.55;;;23.10;92.40;;;;;;4987123;28;20464;-72
2022/10/17 12:01:13;;;;;;;3.67;1.50;;;23.20;92.00;;;;;;4992576;28;20045;-74
2022/10/17 12:04:01;;;;;;;3.80;1.52;;;23.40;91.20;;;;;;4991127;28;20058;-74
2022/10/17 12:06:39;;;;;;;3.33;1.38;;;23.30;91.40;;;;;;4992855;28;20049;-73
2022/10/17 12:09:16;;;;;;;3.75;1.50;;;23.30;92.00;;;;;;4990507;28;20057;-73
2022/10/17 12:11:56;;;;;;;3.75;1.60;;;23.30;92.30;;;;;;4992459;28;20038;-74
2022/10/17 12:14:34;;;;;;;2.60;1.25;;;23.30;91.10;;;;;;4991940;28;20043;-74
2022/10/17 12:17:02;;;;;;;3.97;1.70;;;23.30;91.10;;;;;;4986378;28;20380;-73
2022/10/17 12:19:31;;;;;;;2.70;1.48;;;23.30;92.30;;;;;;4984189;28;20035;-74
2022/10/17 12:22:25;;;;;;;1.90;1.30;;;23.30;92.60;;;;;;4986324;28;20037;-74
2022/10/17 12:24:53;;;;;;;1.75;1.08;;;23.40;91.80;;;;;;4987169;28;20073;-73
2022/10/17 12:27:44;;;;;;;3.42;1.55;;;23.50;91.20;;;;;;4987155;28;20037;-74
2022/10/17 12:30:10;;;;;;;5.05;1.80;;;23.50;92.20;;;;;;4990549;28;20069;-72
2022/10/17 12:32:52;;;;;;;5.38;1.60;;;23.40;90.70;;;;;;4992335;28;20118;-73
2022/10/17 12:35:21;;;;;;;2.53;1.70;;;23.50;91.60;;;;;;4991383;28;20042;-74
2022/10/17 12:37:47;;;;;;;6.20;2.22;;;23.60;90.10;;;;;;4991905;28;20038;-73
2022/10/17 12:40:35;;;;;;;3.22;1.65;;;23.80;90.10;;;;;;4989104;28;20035;-73
2022/10/17 12:43:27;;;;;;;4.93;1.45;;;23.90;88.20;;;;;;4991940;28;20035;-74
2022/10/17 12:45:55;;;;;;;5.03;1.83;;;23.90;88.70;;;;;;4995182;28;20038;-72
2022/10/17 12:48:36;;;;;;;7.95;2.10;;;23.90;88.40;;;;;;4987309;28;20388;-74
2022/10/17 12:51:08;;;;;;;3.20;1.23;;;23.90;86.20;;;;;;4957410;29;20070;-73
2022/10/17 12:53:47;;;;;;;2.13;1.60;;;23.90;87.90;;;;;;4957058;29;20047;-73
2022/10/17 12:56:37;;;;;;;5.72;1.83;;;23.90;89.20;;;;;;4956637;29;20035;-74
2022/10/17 12:59:24;;;;;;;3.23;1.73;;;24.10;87.00;;;;;;4955784;28;20088;-73
2022/10/17 13:01:57;;;;;;;5.25;2.03;;;24.10;87.90;;;;;;4957000;29;20051;-72
2022/10/17 13:04:25;;;;;;;2.50;1.67;;;24.20;85.30;;;;;;4956745;29;20044;-73
2022/10/17 13:06:54;;;;;;;4.43;1.33;;;24.20;84.20;;;;;;4951751;29;20046;-73
2022/10/17 13:09:28;;;;;;;2.58;1.40;;;24.10;86.50;;;;;;4955028;29;20031;-74
2022/10/17 13:11:57;;;;;;;4.63;1.80;;;24.10;85.30;;;;;;4955877;29;20031;-73
2022/10/17 13:14:24;;;;;;;3.83;1.63;;;24.10;84.40;;;;;;4956252;29;20035;-74